Terminal Aerodrome Forecast
Issued by NWS

Home | Current Version | Previous Version | Text Only | Print | Product List | Glossary On
Versions: 1 2 3 4 5 6 7 8 9 10 11 12 13 14 15 16 17 18 19 20 21 22 23 24 25 26 27 28 29 30 31 32 33 34 35 36 37 38 39 40 41 42 43 44 45 46 47 48 49 50
000
FTUS44 KHGX 190058 AAA
TAFUTS
TAF AMD
KUTS 190058Z 1901/1924 VRB04KT P6SM SCT005 BKN012
      TEMPO 1901/1904 -RA BKN005
     FM190400 VRB02KT 5SM BR BKN005
      TEMPO 1909/1913 3SM BR BKN005
     FM191500 09007KT P6SM VCSH SCT015 BKN040 BKN250
     FM192200 12005KT P6SM SCT025 BKN250=

USA.gov is the U.S. government's official web portal to all federal, state and local government web resources and services.